Melbourne International Airport
KMLB : now visible

Airfield :











YOU CAN JOIN US ON...

 
LOGIN :

Register | Disclaimer

   EN    FR    IT 

 









Legend :    VFR   Marginal VFR   IFR   Intensive IFR   Very Intensive IFR
Visi :
Ceiling :
>= 8 km
>= 3000ft
5 to 8 km
1000 to 3000 ft
1500m to 5 km
500 to 1000 ft
800 to 1500m
200 to 500 ft
< 800m
< 200 ft
Symbols :   Thunderstorms  Fog  Heavy snow  Heavy precipitations  Wind > 20 kt






- Airport Elevation : 33 ft
- IATA code : MLB


KMLB - Melbourne International

CURRENT METAR :
  • 171153Z 10009KT 10SM FEW029 23/16 A3014 RMK AO2 SLP207 T02280161 10228 20222 51012

EXPIRED METARs :
  • 171053Z 12006KT 10SM SCT029 22/16 A3013 RMK AO2 SLP203 T02220161
  • 170953Z AUTO 11009KT 10SM FEW029 22/16 A3012 RMK AO2 SLP199 T02220161
  • 170853Z AUTO 12009KT 10SM SCT028 22/17 A3011 RMK AO2 SLP195 T02220167 55009
  • 170753Z AUTO 13007KT 10SM FEW028 22/16 A3011 RMK AO2 SLP195 T02220161

TAF KMLB
Valid from the 17 at 12:00 until the 18 at 12:00 UTC


171123Z 1712/1812 11006KT P6SM FEW030 BKN300
FM171400 11012KT P6SM FEW035 SCT250
FM180300 VRB04KT P6SM SCT250
KZMA FIR / North America



MET'MAP, your aeronautical weather chart ! - Copyright ORBIFLY December 2007 - Disclaimer

ORBIFLY MET'MAP TEAM :

Programming & Development : Alexandra Zaïnal
Original concept : Baudouin d'Aumeries
Technical & hardware support : Manuel Goepfert
Assistance : Marc-Olivier Méhu




SOURCES & CREDITS :

   NOAA       Earth
Advisory